createdAt,value
2018-11-03T00:01:49.799Z,9.60
2018-11-03T00:04:17.900Z,9.70
2018-11-03T00:06:47.119Z,9.70
2018-11-03T00:09:21.773Z,9.70
2018-11-03T00:11:49.985Z,9.70
2018-11-03T00:14:18.177Z,9.80
2018-11-03T00:16:46.348Z,9.80
2018-11-03T00:19:14.528Z,9.80
2018-11-03T00:21:43.165Z,9.80
2018-11-03T00:24:11.213Z,9.80
2018-11-03T00:26:39.395Z,9.80
2018-11-03T00:29:07.553Z,9.80
2018-11-03T00:31:35.648Z,9.80
2018-11-03T00:34:03.793Z,9.80
2018-11-03T00:36:31.847Z,9.80
2018-11-03T00:39:00.036Z,9.80
2018-11-03T00:41:28.292Z,9.90
2018-11-03T00:43:56.558Z,9.80
2018-11-03T00:46:24.811Z,9.80
2018-11-03T00:48:53.072Z,9.80
2018-11-03T00:51:21.394Z,9.90
2018-11-03T00:53:50.049Z,9.80
2018-11-03T00:56:18.135Z,9.80
2018-11-03T00:58:46.220Z,9.90
2018-11-03T01:01:14.342Z,9.90
2018-11-03T01:03:42.783Z,9.90
2018-11-03T01:06:10.871Z,9.90
2018-11-03T01:08:38.996Z,9.90
2018-11-03T01:11:07.205Z,9.90
2018-11-03T01:13:35.430Z,9.90
2018-11-03T01:16:03.534Z,9.80
2018-11-03T01:18:31.650Z,9.90
2018-11-03T01:21:00.941Z,9.80
2018-11-03T01:23:29.023Z,9.80
2018-11-03T01:25:57.139Z,9.80
2018-11-03T01:28:25.251Z,9.90
2018-11-03T01:30:53.509Z,9.90
2018-11-03T01:33:21.843Z,9.90
2018-11-03T01:35:49.955Z,9.90
2018-11-03T01:38:18.319Z,9.90
2018-11-03T01:40:46.426Z,9.90
2018-11-03T01:43:14.521Z,9.90
2018-11-03T01:45:42.615Z,9.90
2018-11-03T01:48:10.793Z,9.90
2018-11-03T01:50:38.882Z,9.90
2018-11-03T01:53:07.206Z,9.90
2018-11-03T01:55:35.200Z,9.90
2018-11-03T01:58:03.300Z,10.00
2018-11-03T02:00:31.432Z,9.90
2018-11-03T02:02:59.780Z,10.00
2018-11-03T02:05:27.802Z,10.00
2018-11-03T02:07:55.986Z,10.00
2018-11-03T02:10:24.043Z,10.00
2018-11-03T02:12:52.165Z,10.00
2018-11-03T02:15:20.217Z,10.00
2018-11-03T02:17:48.169Z,10.00
2018-11-03T02:20:16.234Z,10.10
2018-11-03T02:22:44.512Z,10.10
2018-11-03T02:25:12.612Z,10.10
2018-11-03T02:27:41.055Z,10.10
2018-11-03T02:30:10.611Z,10.10
2018-11-03T02:32:38.806Z,10.10
2018-11-03T02:35:08.183Z,10.10
2018-11-03T02:37:36.363Z,10.10
2018-11-03T02:40:05.539Z,10.10
2018-11-03T02:42:33.637Z,10.10
2018-11-03T02:45:01.713Z,10.10
2018-11-03T02:47:29.723Z,10.10
2018-11-03T02:49:57.960Z,10.10
2018-11-03T02:52:26.003Z,10.10
2018-11-03T02:54:54.085Z,10.10
2018-11-03T02:57:22.209Z,10.10
2018-11-03T02:59:50.279Z,10.10
2018-11-03T03:02:18.473Z,10.10
2018-11-03T03:04:46.654Z,10.20
2018-11-03T03:07:14.772Z,10.10
2018-11-03T03:09:42.873Z,10.10
2018-11-03T03:12:11.123Z,10.20
2018-11-03T03:14:39.451Z,10.10
2018-11-03T03:17:07.528Z,10.10
2018-11-03T03:19:35.620Z,10.20
2018-11-03T03:22:03.611Z,10.20
2018-11-03T03:24:31.668Z,10.10
2018-11-03T03:26:59.884Z,10.10
2018-11-03T03:29:27.932Z,10.10
2018-11-03T03:31:56.160Z,10.10
2018-11-03T03:34:24.425Z,10.10
2018-11-03T03:36:52.492Z,10.10
2018-11-03T03:39:20.407Z,10.10
2018-11-03T03:41:48.397Z,10.10
2018-11-03T03:44:16.402Z,10.10
2018-11-03T03:46:44.447Z,10.10
2018-11-03T03:49:12.457Z,10.10
2018-11-03T03:51:40.436Z,10.10
2018-11-03T03:54:08.867Z,10.00
2018-11-03T03:56:37.049Z,10.00
2018-11-03T03:59:05.269Z,10.00
2018-11-03T04:01:33.373Z,10.00
2018-11-03T04:04:01.539Z,10.00
2018-11-03T04:06:29.567Z,9.90
2018-11-03T04:08:57.602Z,10.00
2018-11-03T04:11:25.675Z,9.90
2018-11-03T04:13:53.710Z,9.90
2018-11-03T04:16:21.687Z,9.90
2018-11-03T04:18:50.160Z,9.90
2018-11-03T04:21:26.905Z,9.90
2018-11-03T04:23:55.112Z,9.90
2018-11-03T04:26:23.469Z,9.90
2018-11-03T04:28:51.819Z,9.90
2018-11-03T04:31:19.926Z,10.00
2018-11-03T04:33:48.180Z,9.90
2018-11-03T04:36:16.330Z,9.90
2018-11-03T04:38:44.357Z,9.90
2018-11-03T04:41:12.537Z,10.00
2018-11-03T04:43:40.654Z,9.90
2018-11-03T04:46:09.127Z,9.90
2018-11-03T04:48:37.576Z,9.90
2018-11-03T04:51:06.112Z,9.90
2018-11-03T04:53:34.221Z,9.90
2018-11-03T04:56:02.386Z,9.80
2018-11-03T04:58:30.975Z,9.80
2018-11-03T05:00:59.034Z,9.80
2018-11-03T05:03:27.236Z,9.80
2018-11-03T05:05:55.997Z,9.80
2018-11-03T05:08:24.622Z,9.80
2018-11-03T05:10:52.807Z,9.80
2018-11-03T05:13:20.936Z,9.80
2018-11-03T05:15:49.001Z,9.80
2018-11-03T05:18:17.419Z,9.70
2018-11-03T05:20:45.460Z,9.70
2018-11-03T05:23:13.548Z,9.70
2018-11-03T05:25:41.755Z,9.70
2018-11-03T05:28:09.891Z,9.70
2018-11-03T05:30:38.022Z,9.70
2018-11-03T05:33:06.259Z,9.70
2018-11-03T05:35:34.382Z,9.80
2018-11-03T05:38:02.495Z,9.80
2018-11-03T05:40:30.525Z,9.80
2018-11-03T05:42:58.643Z,9.80
2018-11-03T05:45:26.984Z,9.80
2018-11-03T05:47:54.984Z,9.80
2018-11-03T05:50:23.327Z,9.80
2018-11-03T05:52:51.448Z,9.80
2018-11-03T05:55:19.524Z,9.80
2018-11-03T05:57:47.661Z,9.80
2018-11-03T06:00:15.776Z,9.80
2018-11-03T06:02:43.776Z,9.80
2018-11-03T06:05:11.993Z,9.80
2018-11-03T06:07:40.101Z,9.70
2018-11-03T06:10:08.576Z,9.70
2018-11-03T06:12:36.885Z,9.70
2018-11-03T06:15:05.035Z,9.70
2018-11-03T06:17:33.293Z,9.70
2018-11-03T06:20:01.724Z,9.70
2018-11-03T06:22:29.939Z,9.70
2018-11-03T06:24:57.860Z,9.70
2018-11-03T06:27:25.966Z,9.70
2018-11-03T06:29:54.130Z,9.70
2018-11-03T06:32:22.146Z,9.70
2018-11-03T06:34:50.393Z,9.70
2018-11-03T06:37:18.534Z,9.70
2018-11-03T06:39:46.637Z,9.70
2018-11-03T06:42:14.748Z,9.70
2018-11-03T06:44:42.815Z,9.70
2018-11-03T06:47:11.131Z,9.70
2018-11-03T06:49:39.245Z,9.70
2018-11-03T06:52:07.692Z,9.70
2018-11-03T06:54:36.332Z,9.70
2018-11-03T06:57:04.562Z,9.70
2018-11-03T06:59:32.714Z,9.70
2018-11-03T07:02:00.974Z,9.70
2018-11-03T07:04:29.135Z,9.70
2018-11-03T07:06:57.326Z,9.80
2018-11-03T07:09:25.882Z,9.80
2018-11-03T07:11:53.999Z,9.70
2018-11-03T07:14:21.964Z,9.70
2018-11-03T07:16:50.250Z,9.80
2018-11-03T07:19:18.299Z,9.70
2018-11-03T07:21:46.482Z,9.70
2018-11-03T07:24:14.586Z,9.70
2018-11-03T07:26:42.715Z,9.70
2018-11-03T07:29:11.030Z,9.70
2018-11-03T07:31:39.204Z,9.70
2018-11-03T07:34:07.304Z,9.70
2018-11-03T07:36:35.416Z,9.70
2018-11-03T07:39:04.980Z,9.70
2018-11-03T07:41:33.588Z,9.70
2018-11-03T07:44:01.692Z,9.70
2018-11-03T07:46:29.763Z,9.70
2018-11-03T07:48:58.041Z,9.70
2018-11-03T07:51:26.059Z,9.80
2018-11-03T07:53:54.270Z,9.80
2018-11-03T07:56:22.492Z,9.90
2018-11-03T07:58:50.455Z,9.90
2018-11-03T08:01:18.487Z,10.00
2018-11-03T08:03:46.494Z,10.00
2018-11-03T08:06:14.689Z,10.10
2018-11-03T08:08:42.793Z,10.10
2018-11-03T08:11:10.865Z,10.20
2018-11-03T08:13:39.019Z,10.20
2018-11-03T08:16:07.315Z,10.20
2018-11-03T08:18:35.393Z,10.20
2018-11-03T08:21:03.794Z,10.20
2018-11-03T08:23:31.905Z,10.20
2018-11-03T08:26:00.132Z,10.20
2018-11-03T08:28:28.179Z,10.20
2018-11-03T08:30:56.288Z,10.20
2018-11-03T08:33:24.372Z,10.20
2018-11-03T08:35:52.516Z,10.20
2018-11-03T08:38:20.605Z,10.20
2018-11-03T08:40:48.652Z,10.20
2018-11-03T08:43:16.798Z,10.10
2018-11-03T08:45:44.907Z,10.20
2018-11-03T08:48:13.181Z,10.10
2018-11-03T08:50:41.379Z,10.10
2018-11-03T08:53:09.990Z,10.10
2018-11-03T08:55:38.701Z,10.10
2018-11-03T08:58:07.160Z,10.20
2018-11-03T09:00:36.401Z,10.20
2018-11-03T09:03:04.712Z,10.30
2018-11-03T09:05:33.083Z,10.30
2018-11-03T09:08:01.485Z,10.30
2018-11-03T09:10:29.724Z,10.30
2018-11-03T09:12:58.170Z,10.30
2018-11-03T09:15:26.278Z,10.40
2018-11-03T09:17:54.482Z,10.40
2018-11-03T09:20:22.608Z,10.40
2018-11-03T09:22:50.836Z,10.40
2018-11-03T09:25:24.933Z,10.40
2018-11-03T09:27:53.332Z,10.40
2018-11-03T09:30:21.558Z,10.30
2018-11-03T09:32:49.739Z,10.20
2018-11-03T09:35:17.880Z,10.30
2018-11-03T09:37:45.944Z,10.30
2018-11-03T09:40:15.223Z,10.30
2018-11-03T09:42:44.403Z,10.30
2018-11-03T09:45:13.166Z,10.30
2018-11-03T09:47:41.614Z,10.20
2018-11-03T09:50:11.461Z,10.20
2018-11-03T09:52:40.167Z,10.20
2018-11-03T09:55:10.860Z,10.20
2018-11-03T09:57:38.941Z,10.10
2018-11-03T10:00:10.510Z,10.20
2018-11-03T10:02:38.913Z,10.20
2018-11-03T10:05:07.683Z,10.10
2018-11-03T10:07:36.056Z,10.10
2018-11-03T10:10:05.019Z,10.10
2018-11-03T10:12:33.108Z,10.10
2018-11-03T10:15:07.852Z,10.10
2018-11-03T10:17:36.127Z,10.10
2018-11-03T10:20:05.526Z,10.10
2018-11-03T10:22:33.842Z,10.10
2018-11-03T10:25:02.538Z,10.10
2018-11-03T10:27:30.598Z,10.10
2018-11-03T10:29:58.810Z,10.10
2018-11-03T10:32:27.149Z,10.00
2018-11-03T10:34:55.150Z,10.00
2018-11-03T10:37:23.673Z,10.00
2018-11-03T10:39:51.860Z,10.00
2018-11-03T10:42:20.580Z,10.10
2018-11-03T10:44:48.929Z,10.10
2018-11-03T10:47:17.093Z,10.20
2018-11-03T10:49:45.389Z,10.20
2018-11-03T10:52:13.668Z,10.20
2018-11-03T10:54:41.896Z,10.20
2018-11-03T10:57:10.813Z,10.20
2018-11-03T10:59:39.087Z,10.20
2018-11-03T11:02:12.921Z,10.20
2018-11-03T11:04:46.553Z,10.10
2018-11-03T11:07:20.185Z,10.10
2018-11-03T11:09:54.144Z,10.00
2018-11-03T11:12:27.886Z,9.90
2018-11-03T11:14:56.085Z,9.90
2018-11-03T11:17:24.365Z,9.80
2018-11-03T11:19:52.671Z,9.80
2018-11-03T11:22:20.806Z,9.80
2018-11-03T11:24:49.285Z,9.70
2018-11-03T11:27:17.334Z,9.80
2018-11-03T11:29:45.515Z,9.90
2018-11-03T11:32:14.688Z,10.00
2018-11-03T11:34:42.922Z,10.10
2018-11-03T11:37:11.159Z,10.20
2018-11-03T11:39:39.246Z,10.30
2018-11-03T11:42:07.378Z,10.30
2018-11-03T11:44:35.481Z,10.30
2018-11-03T11:47:03.835Z,10.30
2018-11-03T11:49:32.142Z,10.30
2018-11-03T11:52:00.438Z,10.20
2018-11-03T11:54:28.836Z,10.20
2018-11-03T11:56:57.207Z,10.20
2018-11-03T11:59:26.085Z,10.20
2018-11-03T12:01:54.924Z,10.20
2018-11-03T12:04:23.911Z,10.20
2018-11-03T12:06:51.963Z,10.10
2018-11-03T12:09:20.235Z,10.20
2018-11-03T12:11:48.270Z,10.10
2018-11-03T12:14:16.498Z,10.20
2018-11-03T12:16:44.555Z,10.30
2018-11-03T12:19:12.642Z,10.30
2018-11-03T12:21:41.026Z,10.40
2018-11-03T12:24:09.348Z,10.30
2018-11-03T12:26:37.718Z,10.20
2018-11-03T12:29:05.838Z,10.10
2018-11-03T12:31:34.120Z,10.00
2018-11-03T12:34:02.334Z,10.10
2018-11-03T12:36:30.364Z,10.10
2018-11-03T12:38:58.539Z,10.10
2018-11-03T12:41:26.984Z,10.00
2018-11-03T12:43:58.271Z,10.00
2018-11-03T12:46:26.373Z,10.00
2018-11-03T12:48:54.434Z,10.00
2018-11-03T12:51:22.967Z,10.00
2018-11-03T12:53:51.436Z,10.00
2018-11-03T12:56:19.779Z,10.00
2018-11-03T12:58:48.063Z,9.90
2018-11-03T13:01:16.476Z,9.80
2018-11-03T13:03:44.721Z,9.80
2018-11-03T13:06:12.911Z,9.80
2018-11-03T13:08:41.287Z,9.80
2018-11-03T13:11:09.711Z,9.80
2018-11-03T13:13:37.863Z,9.80
2018-11-03T13:16:06.025Z,9.80
2018-11-03T13:18:34.167Z,9.80
2018-11-03T13:21:02.276Z,9.70
2018-11-03T13:23:30.633Z,9.70
2018-11-03T13:25:58.773Z,9.70
2018-11-03T13:28:27.945Z,9.70
2018-11-03T13:30:56.004Z,9.70
2018-11-03T13:33:24.418Z,9.80
2018-11-03T13:35:52.668Z,9.70
2018-11-03T13:38:21.102Z,9.70
2018-11-03T13:40:49.555Z,9.50
2018-11-03T13:43:18.201Z,9.50
2018-11-03T13:45:46.435Z,9.40
2018-11-03T13:48:14.726Z,9.40
2018-11-03T13:50:43.020Z,9.40
2018-11-03T13:53:11.338Z,9.50
2018-11-03T13:55:39.793Z,9.40
2018-11-03T13:58:08.065Z,9.40
2018-11-03T14:00:36.244Z,9.50
2018-11-03T14:03:04.439Z,9.50
2018-11-03T14:05:33.115Z,9.40
2018-11-03T14:08:01.422Z,9.40
2018-11-03T14:10:29.536Z,9.40
2018-11-03T14:12:58.280Z,9.40
2018-11-03T14:15:26.319Z,9.40
2018-11-03T14:17:54.670Z,9.40
2018-11-03T14:20:22.859Z,9.40
2018-11-03T14:22:51.753Z,9.40
2018-11-03T14:25:19.941Z,9.40
2018-11-03T14:27:48.346Z,9.30
2018-11-03T14:30:16.527Z,9.30
2018-11-03T14:32:45.046Z,9.30
2018-11-03T14:35:14.010Z,9.30
2018-11-03T14:37:42.036Z,9.30
2018-11-03T14:40:12.239Z,9.20
2018-11-03T14:42:41.281Z,9.20
2018-11-03T14:45:10.463Z,9.10
2018-11-03T14:47:38.559Z,9.10
2018-11-03T14:50:07.898Z,9.10
2018-11-03T14:52:37.231Z,9.10
2018-11-03T14:55:06.542Z,9.00
2018-11-03T14:57:34.592Z,9.00
2018-11-03T15:00:03.474Z,9.00
2018-11-03T15:02:31.946Z,9.00
2018-11-03T15:05:00.219Z,9.00
2018-11-03T15:07:28.197Z,9.00
2018-11-03T15:09:56.252Z,8.90
2018-11-03T15:12:24.369Z,9.00
2018-11-03T15:14:52.415Z,9.00
2018-11-03T15:17:20.812Z,9.00
2018-11-03T15:19:49.231Z,9.00
2018-11-03T15:22:17.565Z,9.00
2018-11-03T15:24:45.562Z,9.00
2018-11-03T15:27:14.725Z,9.00
2018-11-03T15:29:42.937Z,9.00
2018-11-03T15:32:11.145Z,9.00
2018-11-03T15:34:39.299Z,8.90
2018-11-03T15:37:07.436Z,8.90
2018-11-03T15:39:35.565Z,9.00
2018-11-03T15:42:04.172Z,9.00
2018-11-03T15:44:33.213Z,9.00
2018-11-03T15:47:01.849Z,9.00
2018-11-03T15:49:30.132Z,9.00
2018-11-03T15:51:58.212Z,9.00
2018-11-03T15:54:27.478Z,9.00
2018-11-03T15:56:55.680Z,9.00
2018-11-03T15:59:24.085Z,8.90
2018-11-03T16:01:52.428Z,8.90
2018-11-03T16:04:20.382Z,8.90
2018-11-03T16:06:48.764Z,8.90
2018-11-03T16:09:17.167Z,8.90
2018-11-03T16:11:45.462Z,8.90
2018-11-03T16:14:13.762Z,8.90
2018-11-03T16:16:41.910Z,8.90
2018-11-03T16:19:10.204Z,8.90
2018-11-03T16:21:38.405Z,8.90
2018-11-03T16:24:06.650Z,8.90
2018-11-03T16:26:34.924Z,8.80
2018-11-03T16:31:41.476Z,8.80
2018-11-03T16:34:09.971Z,8.90
2018-11-03T16:36:38.320Z,8.90
2018-11-03T16:39:08.691Z,8.80
2018-11-03T16:41:36.711Z,8.80
2018-11-03T16:44:04.919Z,8.80
2018-11-03T16:46:33.044Z,8.80
2018-11-03T16:49:01.409Z,8.80
2018-11-03T16:51:29.750Z,8.70
2018-11-03T16:53:57.782Z,8.70
2018-11-03T16:56:26.054Z,8.60
2018-11-03T16:58:54.094Z,8.60
2018-11-03T17:01:22.556Z,8.40
2018-11-03T17:03:50.654Z,8.40
2018-11-03T17:06:19.081Z,8.30
2018-11-03T17:08:47.929Z,8.30
2018-11-03T17:11:17.117Z,8.20
2018-11-03T17:13:45.339Z,8.10
2018-11-03T17:16:13.875Z,8.10
2018-11-03T17:18:42.108Z,8.10
2018-11-03T17:21:10.345Z,8.00
2018-11-03T17:23:38.412Z,7.90
2018-11-03T17:26:06.662Z,7.90
2018-11-03T17:28:41.308Z,7.90
2018-11-03T17:31:09.815Z,7.90
2018-11-03T17:33:37.978Z,7.80
2018-11-03T17:36:06.441Z,7.70
2018-11-03T17:38:34.912Z,7.70
2018-11-03T17:41:03.117Z,7.70
2018-11-03T17:43:31.194Z,7.70
2018-11-03T17:45:59.577Z,7.60
2018-11-03T17:48:28.295Z,7.60
2018-11-03T17:50:56.388Z,7.50
2018-11-03T17:53:24.650Z,7.50
2018-11-03T17:55:52.862Z,7.50
2018-11-03T17:58:21.422Z,7.40
2018-11-03T18:00:49.807Z,7.40
2018-11-03T18:03:17.881Z,7.30
2018-11-03T18:05:46.085Z,7.30
2018-11-03T18:08:14.335Z,7.30
2018-11-03T18:10:42.426Z,7.30
2018-11-03T18:13:10.879Z,7.20
2018-11-03T18:15:39.164Z,7.20
2018-11-03T18:18:07.463Z,7.20
2018-11-03T18:20:35.584Z,7.10
2018-11-03T18:23:03.636Z,7.10
2018-11-03T18:25:31.795Z,7.10
2018-11-03T18:28:00.108Z,7.00
2018-11-03T18:30:28.388Z,7.00
2018-11-03T18:32:56.465Z,7.00
2018-11-03T18:35:24.813Z,6.90
2018-11-03T18:37:53.036Z,6.90
2018-11-03T18:40:21.003Z,6.90
2018-11-03T18:42:49.242Z,6.90
2018-11-03T18:45:17.480Z,6.80
2018-11-03T18:47:45.654Z,6.80
2018-11-03T18:50:14.550Z,6.80
2018-11-03T18:52:42.685Z,6.80
2018-11-03T18:55:11.823Z,6.80
2018-11-03T18:57:41.126Z,6.70
2018-11-03T19:00:10.423Z,6.70
2018-11-03T19:02:39.628Z,6.70
2018-11-03T19:05:09.040Z,6.70
2018-11-03T19:07:37.600Z,6.60
2018-11-03T19:10:06.716Z,6.60
2018-11-03T19:12:35.112Z,6.60
2018-11-03T19:15:03.156Z,6.60
2018-11-03T19:17:31.303Z,6.60
2018-11-03T19:19:59.504Z,6.60
2018-11-03T19:22:28.223Z,6.50
2018-11-03T19:24:56.975Z,6.60
2018-11-03T19:27:25.248Z,6.60
2018-11-03T19:29:53.510Z,6.50
2018-11-03T19:32:21.681Z,6.50
2018-11-03T19:34:50.015Z,6.50
2018-11-03T19:37:18.127Z,6.50
2018-11-03T19:39:46.375Z,6.50
2018-11-03T19:42:14.991Z,6.50
2018-11-03T19:44:43.031Z,6.50
2018-11-03T19:47:11.175Z,6.50
2018-11-03T19:49:39.291Z,6.50
2018-11-03T19:52:07.504Z,6.50
2018-11-03T19:54:35.563Z,6.50
2018-11-03T19:57:04.025Z,6.40
2018-11-03T19:59:32.913Z,6.50
2018-11-03T20:02:00.958Z,6.50
2018-11-03T20:04:29.689Z,6.50
2018-11-03T20:06:57.718Z,6.50
2018-11-03T20:09:25.867Z,6.50
2018-11-03T20:11:54.305Z,6.50
2018-11-03T20:14:22.727Z,6.50
2018-11-03T20:16:51.018Z,6.50
2018-11-03T20:19:19.474Z,6.50
2018-11-03T20:21:47.688Z,6.50
2018-11-03T20:24:16.105Z,6.50
2018-11-03T20:26:44.414Z,6.40
2018-11-03T20:29:12.559Z,6.50
2018-11-03T20:31:40.579Z,6.50
2018-11-03T20:34:09.163Z,6.40
2018-11-03T20:36:37.384Z,6.50
2018-11-03T20:39:07.770Z,6.40
2018-11-03T20:41:35.951Z,6.40
2018-11-03T20:44:04.047Z,6.30
2018-11-03T20:46:32.108Z,6.30
2018-11-03T20:49:00.267Z,6.20
2018-11-03T20:51:28.634Z,6.20
2018-11-03T20:53:56.825Z,6.20
2018-11-03T20:56:24.851Z,6.20
2018-11-03T20:58:53.102Z,6.20
2018-11-03T21:01:21.308Z,6.10
2018-11-03T21:03:49.495Z,6.10
2018-11-03T21:06:17.766Z,6.00
2018-11-03T21:08:45.938Z,6.10
2018-11-03T21:11:14.018Z,6.10
2018-11-03T21:13:42.091Z,6.20
2018-11-03T21:16:10.209Z,6.10
2018-11-03T21:18:38.288Z,6.10
2018-11-03T21:21:06.499Z,6.10
2018-11-03T21:23:34.606Z,6.10
2018-11-03T21:26:02.842Z,6.10
2018-11-03T21:28:31.155Z,6.00
2018-11-03T21:30:59.578Z,6.00
2018-11-03T21:33:28.183Z,6.00
2018-11-03T21:35:56.334Z,5.90
2018-11-03T21:38:24.660Z,5.90
2018-11-03T21:40:52.699Z,5.90
2018-11-03T21:43:20.843Z,5.90
2018-11-03T21:45:50.171Z,5.90
2018-11-03T21:48:18.838Z,5.90
2018-11-03T21:50:47.047Z,5.90
2018-11-03T21:53:15.189Z,5.90
2018-11-03T21:55:43.243Z,6.00
2018-11-03T21:58:11.784Z,6.00
2018-11-03T22:00:40.012Z,6.00
2018-11-03T22:03:08.116Z,6.00
2018-11-03T22:05:37.151Z,6.00
2018-11-03T22:08:05.507Z,6.00
2018-11-03T22:10:33.572Z,6.00
2018-11-03T22:13:01.581Z,6.00
2018-11-03T22:15:29.727Z,6.00
2018-11-03T22:17:57.888Z,6.00
2018-11-03T22:20:26.022Z,6.00
2018-11-03T22:22:54.154Z,6.00
2018-11-03T22:25:22.251Z,6.00
2018-11-03T22:27:50.414Z,6.00
2018-11-03T22:30:18.516Z,6.00
2018-11-03T22:32:46.546Z,6.00
2018-11-03T22:35:14.742Z,6.00
2018-11-03T22:37:42.840Z,6.10
2018-11-03T22:40:11.059Z,6.10
2018-11-03T22:42:39.302Z,6.10
2018-11-03T22:45:07.611Z,6.10
2018-11-03T22:47:35.840Z,6.10
2018-11-03T22:50:04.279Z,6.10
2018-11-03T22:52:32.455Z,6.20
2018-11-03T22:55:00.444Z,6.10
2018-11-03T22:57:28.458Z,6.20
2018-11-03T22:59:56.780Z,6.20
2018-11-03T23:02:25.076Z,6.20
2018-11-03T23:04:53.346Z,6.20
2018-11-03T23:07:21.442Z,6.20
2018-11-03T23:09:49.615Z,6.10
2018-11-03T23:12:17.786Z,6.10
2018-11-03T23:14:45.968Z,6.10
2018-11-03T23:17:14.153Z,6.10
2018-11-03T23:19:42.302Z,6.10
2018-11-03T23:22:10.943Z,6.10
2018-11-03T23:24:39.121Z,6.10
2018-11-03T23:27:07.405Z,6.00
2018-11-03T23:29:35.652Z,6.10
2018-11-03T23:32:03.863Z,6.10
2018-11-03T23:34:32.014Z,6.00
2018-11-03T23:37:00.674Z,6.00
2018-11-03T23:39:28.791Z,6.00
2018-11-03T23:41:56.907Z,6.00
2018-11-03T23:44:25.050Z,6.00
2018-11-03T23:46:53.161Z,6.00
2018-11-03T23:49:22.139Z,6.10
2018-11-03T23:51:51.909Z,6.00
2018-11-03T23:54:19.942Z,6.10
2018-11-03T23:56:47.995Z,6.10
2018-11-03T23:59:16.691Z,6.10
